Time;durP1;ratioP1;P1;durP2;ratioP2;P2;SDS_P1;SDS_P2;PMS_P1;PMS_P2;Temp;Humidity;BMP_temperature;BMP_pressure;BME280_temperature;BME280_humidity;BME280_pressure;Samples;Min_cycle;Max_cycle;Signal;HPM_P1;HPM_P2
2022/01/13 00:02:16;;;;;;;49.85;24.30;;;3.80;99.90;;;;;;5134065;27;20530;-51
2022/01/13 00:04:42;;;;;;;47.40;25.10;;;3.80;99.90;;;;;;5133968;27;20170;-51
2022/01/13 00:07:10;;;;;;;53.20;25.30;;;3.80;99.90;;;;;;5133940;27;20178;-49
2022/01/13 00:09:35;;;;;;;52.85;25.88;;;3.80;99.90;;;;;;5134147;27;20517;-50
2022/01/13 00:12:01;;;;;;;54.10;25.70;;;3.80;99.90;;;;;;5133906;27;20212;-49
2022/01/13 00:24:41;;;;;;;47.47;24.23;;;3.80;99.90;;;;;;5133552;27;20511;-51
2022/01/13 00:27:11;;;;;;;52.42;24.20;;;3.70;99.90;;;;;;5133854;27;20220;-51
2022/01/13 00:29:40;;;;;;;46.75;25.15;;;3.80;99.90;;;;;;5133551;27;20205;-51
2022/01/13 00:32:07;;;;;;;50.17;25.75;;;3.70;99.90;;;;;;5133503;27;20160;-51
2022/01/13 00:34:32;;;;;;;50.75;23.92;;;3.80;99.90;;;;;;5133420;27;20168;-51
2022/01/13 00:36:58;;;;;;;41.55;23.27;;;3.80;99.90;;;;;;5133607;27;20203;-50
2022/01/13 00:39:24;;;;;;;37.58;21.00;;;3.80;99.90;;;;;;5133611;27;20160;-51
2022/01/13 00:41:50;;;;;;;47.42;24.67;;;3.80;99.90;;;;;;5132986;27;20304;-51
2022/01/13 00:44:19;;;;;;;53.70;25.65;;;3.80;99.90;;;;;;5133411;27;20203;-50
2022/01/13 00:46:48;;;;;;;50.13;25.90;;;3.80;99.90;;;;;;5133542;27;20258;-51
2022/01/13 00:49:15;;;;;;;47.35;25.42;;;3.90;99.90;;;;;;5133570;27;20171;-51
2022/01/13 00:51:41;;;;;;;49.55;24.63;;;3.80;99.90;;;;;;5133446;27;20171;-49
2022/01/13 00:54:08;;;;;;;49.95;26.10;;;3.80;99.90;;;;;;5114864;27;20179;-50
2022/01/13 00:56:35;;;;;;;47.83;25.88;;;3.80;99.90;;;;;;5133133;27;20221;-50
2022/01/13 00:59:07;;;;;;;40.72;22.77;;;3.80;99.90;;;;;;5133083;27;20185;-50
2022/01/13 01:01:42;;;;;;;42.00;23.17;;;3.90;99.90;;;;;;5133092;27;20170;-50
2022/01/13 01:04:08;;;;;;;50.13;24.45;;;3.90;99.90;;;;;;5114664;27;20199;-55
2022/01/13 01:06:34;;;;;;;48.28;23.75;;;3.80;99.90;;;;;;5132947;27;20175;-51
2022/01/13 01:09:00;;;;;;;50.60;26.08;;;3.80;99.90;;;;;;5132614;28;20204;-50
2022/01/13 01:11:26;;;;;;;53.67;25.92;;;3.90;99.90;;;;;;5133368;28;20159;-51
2022/01/13 01:13:54;;;;;;;47.22;25.33;;;3.90;99.90;;;;;;5132886;28;20306;-51
2022/01/13 01:16:20;;;;;;;40.97;23.35;;;3.90;99.90;;;;;;5133120;28;20195;-51
2022/01/13 01:21:34;;;;;;;50.80;25.55;;;4.00;99.90;;;;;;5133191;28;20160;-49
2022/01/13 01:26:54;;;;;;;47.97;23.98;;;3.90;99.90;;;;;;5133151;28;20171;-50
2022/01/13 01:31:51;;;;;;;44.58;23.08;;;3.90;99.90;;;;;;5132867;28;20160;-49
2022/01/13 01:34:53;;;;;;;45.45;24.83;;;3.90;99.90;;;;;;5132824;28;20216;-50
2022/01/13 01:37:14;;;;;;;46.15;23.60;;;3.90;99.90;;;;;;5131997;28;20216;-50
2022/01/13 01:39:41;;;;;;;47.83;24.05;;;3.90;99.90;;;;;;5132745;28;20208;-49
2022/01/13 01:42:07;;;;;;;47.30;24.60;;;3.90;99.90;;;;;;5132758;28;20167;-49
2022/01/13 01:44:37;;;;;;;49.35;23.70;;;4.00;99.90;;;;;;5132762;28;20168;-49
2022/01/13 01:47:03;;;;;;;52.58;24.17;;;3.90;99.90;;;;;;5132960;28;20172;-50
2022/01/13 01:49:32;;;;;;;46.25;24.63;;;3.90;99.90;;;;;;5132929;28;20167;-50
2022/01/13 01:52:01;;;;;;;44.70;24.30;;;3.90;99.90;;;;;;5114585;28;20160;-49
2022/01/13 01:54:27;;;;;;;47.38;24.67;;;3.80;99.90;;;;;;5134759;27;20164;-50
2022/01/13 01:56:54;;;;;;;51.45;25.08;;;3.80;99.90;;;;;;5136345;27;20336;-49
2022/01/13 01:59:24;;;;;;;45.63;24.85;;;3.80;99.90;;;;;;5136520;27;20765;-50
2022/01/13 02:01:50;;;;;;;49.97;25.27;;;3.70;99.90;;;;;;5136689;27;20308;-51
2022/01/13 02:04:17;;;;;;;50.15;25.40;;;3.90;99.90;;;;;;5136468;27;20160;-50
2022/01/13 02:06:44;;;;;;;44.33;25.00;;;3.90;99.90;;;;;;5136336;27;20623;-51
2022/01/13 02:09:11;;;;;;;50.35;24.35;;;3.80;99.90;;;;;;5136522;27;20247;-50
2022/01/13 02:11:43;;;;;;;49.92;25.10;;;3.80;99.90;;;;;;5136331;27;20163;-51
2022/01/13 02:17:02;;;;;;;47.85;24.77;;;3.80;99.90;;;;;;5136398;27;20203;-54
2022/01/13 02:19:28;;;;;;;54.80;26.23;;;3.80;99.90;;;;;;5136641;27;20174;-51
2022/01/13 02:21:54;;;;;;;50.08;25.38;;;3.90;99.90;;;;;;5136059;27;20172;-50
2022/01/13 02:24:19;;;;;;;44.40;24.33;;;3.90;99.90;;;;;;5136005;27;20174;-51
2022/01/13 02:26:45;;;;;;;51.33;25.27;;;3.90;99.90;;;;;;5136070;27;20698;-51
2022/01/13 02:29:11;;;;;;;50.92;24.88;;;3.90;99.90;;;;;;5135920;27;20653;-50
2022/01/13 02:31:36;;;;;;;55.10;23.77;;;3.90;99.90;;;;;;5117430;27;20684;-51
2022/01/13 02:34:02;;;;;;;50.13;24.98;;;3.90;99.90;;;;;;5135809;27;20171;-51
2022/01/13 02:36:30;;;;;;;42.67;23.13;;;4.00;99.90;;;;;;5136116;27;20191;-50
2022/01/13 02:38:57;;;;;;;53.30;25.00;;;4.00;99.90;;;;;;5136258;27;20172;-51
2022/01/13 02:41:24;;;;;;;47.45;24.98;;;4.00;99.90;;;;;;5135710;27;20217;-51
2022/01/13 02:43:55;;;;;;;57.55;26.65;;;4.00;99.90;;;;;;5135831;27;20180;-51
2022/01/13 02:48:57;;;;;;;51.15;24.67;;;3.90;99.90;;;;;;5136120;27;20164;-50
2022/01/13 02:51:22;;;;;;;47.22;24.60;;;3.90;99.90;;;;;;5135507;27;20163;-51
2022/01/13 02:53:48;;;;;;;46.58;24.05;;;3.90;99.90;;;;;;5135417;27;20168;-51
2022/01/13 02:56:14;;;;;;;43.95;23.80;;;3.80;99.90;;;;;;5135326;27;20195;-51
2022/01/13 02:58:39;;;;;;;50.00;23.23;;;3.80;99.90;;;;;;5135369;27;20301;-51
2022/01/13 03:01:05;;;;;;;41.80;22.13;;;3.80;99.90;;;;;;5135375;27;20156;-51
2022/01/13 03:03:35;;;;;;;50.20;22.58;;;3.80;99.90;;;;;;5135900;27;20171;-50
2022/01/13 03:06:15;;;;;;;44.40;24.23;;;3.80;99.90;;;;;;5135337;27;20172;-50
2022/01/13 03:08:47;;;;;;;45.75;23.77;;;3.80;99.90;;;;;;5135451;27;20168;-51
2022/01/13 03:11:14;;;;;;;49.30;25.20;;;3.70;99.90;;;;;;5135220;27;20173;-51
2022/01/13 03:13:39;;;;;;;46.08;23.30;;;3.70;99.90;;;;;;5134866;27;20208;-51
2022/01/13 03:16:11;;;;;;;41.72;22.52;;;3.70;99.90;;;;;;5135015;27;20290;-50
2022/01/13 03:18:37;;;;;;;43.05;23.08;;;3.70;99.90;;;;;;5135004;27;20172;-50
2022/01/13 03:21:04;;;;;;;40.08;21.98;;;3.70;99.90;;;;;;5134936;27;20239;-50
2022/01/13 03:23:30;;;;;;;50.70;24.23;;;3.60;99.90;;;;;;5134854;27;20167;-50
2022/01/13 03:25:55;;;;;;;40.97;22.25;;;3.60;99.90;;;;;;5135087;27;20168;-50
2022/01/13 03:28:31;;;;;;;43.10;22.48;;;3.70;99.90;;;;;;5134818;27;20168;-50
2022/01/13 03:31:00;;;;;;;41.50;22.05;;;3.60;99.90;;;;;;5116595;27;20171;-50
2022/01/13 03:33:26;;;;;;;49.55;24.88;;;3.60;99.90;;;;;;5135287;27;20210;-50
2022/01/13 03:35:52;;;;;;;44.67;22.08;;;3.60;99.90;;;;;;5134546;27;20164;-50
2022/01/13 03:38:17;;;;;;;41.08;21.80;;;3.60;99.90;;;;;;5134624;27;20226;-50
2022/01/13 03:40:43;;;;;;;48.28;23.45;;;3.50;99.90;;;;;;5134507;27;20527;-50
2022/01/13 03:43:09;;;;;;;48.80;24.65;;;3.60;99.90;;;;;;5116110;27;20170;-50
2022/01/13 03:45:34;;;;;;;51.13;24.95;;;3.50;99.90;;;;;;5134448;27;20638;-50
2022/01/13 03:48:01;;;;;;;51.10;25.63;;;3.50;99.90;;;;;;5134623;27;20160;-49
2022/01/13 03:50:26;;;;;;;44.97;23.30;;;3.60;99.90;;;;;;5134843;27;20175;-50
2022/01/13 03:52:59;;;;;;;53.58;24.90;;;3.60;99.90;;;;;;5134261;27;20160;-50
2022/01/13 03:56:07;;;;;;;48.15;24.25;;;3.60;99.90;;;;;;5134728;27;20172;-50
2022/01/13 03:59:04;;;;;;;48.78;23.30;;;3.60;99.90;;;;;;5134231;27;20614;-50
2022/01/13 04:01:55;;;;;;;50.72;25.45;;;3.50;99.90;;;;;;5134342;27;20247;-50
2022/01/13 04:04:20;;;;;;;52.78;23.52;;;3.60;99.90;;;;;;5133998;27;20254;-51
2022/01/13 04:06:46;;;;;;;45.10;23.30;;;3.60;99.90;;;;;;5134296;27;20202;-50
2022/01/13 04:09:50;;;;;;;55.15;24.33;;;3.60;99.90;;;;;;5133931;27;20172;-50
2022/01/13 04:12:17;;;;;;;50.00;24.10;;;3.60;99.90;;;;;;5133627;27;20203;-49
2022/01/13 04:14:47;;;;;;;52.42;23.95;;;3.60;99.90;;;;;;5134109;27;20202;-50
2022/01/13 04:17:15;;;;;;;55.05;23.92;;;3.50;99.90;;;;;;5133314;27;20211;-50
2022/01/13 04:19:41;;;;;;;52.88;26.02;;;3.50;99.90;;;;;;5133746;27;20577;-51
2022/01/13 04:22:09;;;;;;;47.90;24.58;;;3.50;99.90;;;;;;5133756;27;20204;-51
2022/01/13 04:24:42;;;;;;;49.58;23.92;;;3.50;99.90;;;;;;5133741;27;20152;-51
2022/01/13 04:27:09;;;;;;;57.90;25.45;;;3.60;99.90;;;;;;5133783;27;20631;-51
2022/01/13 04:29:40;;;;;;;55.60;25.45;;;3.60;99.90;;;;;;5133807;27;20213;-51
2022/01/13 04:32:06;;;;;;;46.47;24.05;;;3.60;99.90;;;;;;5133874;27;20195;-51
2022/01/13 04:34:32;;;;;;;55.85;27.45;;;3.60;99.90;;;;;;5133752;27;20191;-50
2022/01/13 04:36:59;;;;;;;52.42;24.90;;;3.60;99.90;;;;;;5133766;27;20698;-50
2022/01/13 04:39:26;;;;;;;56.90;25.42;;;3.60;99.90;;;;;;5133942;27;20258;-51
2022/01/13 04:41:52;;;;;;;58.33;26.15;;;3.70;99.90;;;;;;5133293;27;20171;-50
2022/01/13 04:44:19;;;;;;;56.75;26.83;;;3.60;99.90;;;;;;5133305;27;20172;-51
2022/01/13 04:46:46;;;;;;;57.88;26.65;;;3.50;99.90;;;;;;5133282;27;20712;-51
2022/01/13 04:49:12;;;;;;;64.55;29.23;;;3.50;99.90;;;;;;5133222;27;20168;-51
2022/01/13 04:51:40;;;;;;;54.30;26.45;;;3.50;99.90;;;;;;5133228;27;20176;-50
2022/01/13 04:54:07;;;;;;;55.13;27.25;;;3.50;99.90;;;;;;5132809;27;20657;-50
2022/01/13 04:56:43;;;;;;;56.53;27.55;;;3.40;99.90;;;;;;5114590;27;20283;-50
2022/01/13 04:59:10;;;;;;;55.35;24.98;;;3.40;99.90;;;;;;5133428;27;20307;-50
2022/01/13 05:01:37;;;;;;;59.20;27.67;;;3.40;99.90;;;;;;5133067;27;20751;-50
2022/01/13 05:04:04;;;;;;;65.22;27.65;;;3.40;99.90;;;;;;5133107;27;20240;-49
2022/01/13 05:06:30;;;;;;;56.75;24.77;;;3.40;99.90;;;;;;5133013;27;20164;-50
2022/01/13 05:08:55;;;;;;;56.05;25.00;;;3.30;99.90;;;;;;5133349;28;20721;-51
2022/01/13 05:11:21;;;;;;;64.85;27.23;;;3.30;99.90;;;;;;5133011;28;20168;-49
2022/01/13 05:13:47;;;;;;;60.95;26.52;;;3.40;99.90;;;;;;5132629;28;20220;-49
2022/01/13 05:16:23;;;;;;;57.47;25.33;;;3.40;99.90;;;;;;5133071;28;20199;-49
2022/01/13 05:21:45;;;;;;;52.97;25.20;;;3.40;99.90;;;;;;5132925;28;20164;-49
2022/01/13 05:24:11;;;;;;;61.72;25.73;;;3.50;99.90;;;;;;5133057;28;20164;-50
2022/01/13 05:26:37;;;;;;;69.00;26.88;;;3.40;99.90;;;;;;5132933;28;20168;-48
2022/01/13 05:29:03;;;;;;;60.47;26.13;;;3.40;99.90;;;;;;5135571;27;20174;-48
2022/01/13 05:31:29;;;;;;;64.05;24.75;;;3.40;99.90;;;;;;5137020;27;20175;-48
2022/01/13 05:33:55;;;;;;;65.07;27.80;;;3.30;99.90;;;;;;5137326;27;20168;-49
2022/01/13 05:36:20;;;;;;;51.20;24.50;;;3.30;99.90;;;;;;5136809;27;20192;-48
2022/01/13 05:38:46;;;;;;;64.60;26.50;;;3.30;99.90;;;;;;5136924;27;20168;-48
2022/01/13 05:41:11;;;;;;;63.80;26.38;;;3.20;99.90;;;;;;5136782;27;20164;-48
2022/01/13 05:43:37;;;;;;;61.13;25.90;;;3.20;99.90;;;;;;5136759;27;20164;-48
2022/01/13 05:46:03;;;;;;;60.20;24.85;;;3.30;99.90;;;;;;5136802;27;20611;-49
2022/01/13 05:48:29;;;;;;;63.45;27.65;;;3.30;99.90;;;;;;5136824;27;20172;-48
2022/01/13 05:50:55;;;;;;;57.72;25.42;;;3.30;99.90;;;;;;5136954;27;20170;-49
2022/01/13 05:53:20;;;;;;;52.08;24.98;;;3.30;99.90;;;;;;5136862;27;20175;-48
2022/01/13 05:55:46;;;;;;;53.97;27.98;;;3.30;99.90;;;;;;5136390;27;20528;-48
2022/01/13 05:58:12;;;;;;;62.70;26.88;;;3.20;99.90;;;;;;5136344;27;20207;-49
2022/01/13 06:00:37;;;;;;;58.25;25.45;;;3.30;99.90;;;;;;5136358;27;20176;-49
2022/01/13 06:03:04;;;;;;;57.78;24.15;;;3.20;99.90;;;;;;5136385;27;20168;-49
2022/01/13 06:05:30;;;;;;;59.05;26.60;;;3.20;99.90;;;;;;5136645;27;20168;-48
2022/01/13 06:07:56;;;;;;;62.30;24.15;;;3.20;99.90;;;;;;5136734;27;20627;-49
2022/01/13 06:10:22;;;;;;;63.67;28.25;;;3.10;99.90;;;;;;5118408;27;20179;-49
2022/01/13 06:12:49;;;;;;;61.40;25.23;;;3.10;99.90;;;;;;5136316;27;20645;-49
2022/01/13 06:15:18;;;;;;;68.00;25.50;;;3.00;99.90;;;;;;5136532;27;20194;-50
2022/01/13 06:17:44;;;;;;;65.45;24.80;;;3.10;99.90;;;;;;5136263;27;20212;-49
2022/01/13 06:20:12;;;;;;;60.15;26.65;;;3.00;99.90;;;;;;5136018;27;20163;-49
2022/01/13 06:22:40;;;;;;;60.63;27.00;;;2.90;99.90;;;;;;5136062;27;20191;-49
2022/01/13 06:25:07;;;;;;;59.58;24.60;;;3.00;99.90;;;;;;5136246;27;20164;-49
2022/01/13 06:27:33;;;;;;;68.75;27.42;;;3.00;99.90;;;;;;5135936;27;20301;-49
2022/01/13 06:29:59;;;;;;;64.72;26.67;;;2.90;99.90;;;;;;5135931;27;20184;-47
2022/01/13 06:32:25;;;;;;;67.60;27.05;;;2.90;99.90;;;;;;5136187;27;20599;-49
2022/01/13 06:34:51;;;;;;;68.55;28.67;;;2.90;99.90;;;;;;5135847;27;20164;-48
2022/01/13 06:37:18;;;;;;;55.97;25.73;;;3.00;99.90;;;;;;5135715;27;20204;-49
2022/01/13 06:39:44;;;;;;;73.15;27.77;;;3.00;99.90;;;;;;5116755;27;20209;-50
2022/01/13 06:42:10;;;;;;;62.10;25.27;;;2.90;99.90;;;;;;5135920;27;20199;-49
2022/01/13 06:44:36;;;;;;;58.75;25.75;;;3.00;99.90;;;;;;5135930;27;20172;-50
2022/01/13 06:47:02;;;;;;;55.20;24.48;;;3.00;99.90;;;;;;5135790;27;20160;-50
2022/01/13 06:49:28;;;;;;;65.65;25.70;;;3.00;99.90;;;;;;5136262;27;20172;-49
2022/01/13 06:51:54;;;;;;;72.38;26.48;;;2.90;99.90;;;;;;5135354;27;20540;-48
2022/01/13 06:54:19;;;;;;;77.20;27.10;;;2.90;99.90;;;;;;5135439;27;20171;-49
2022/01/13 06:56:45;;;;;;;59.60;23.73;;;2.90;99.90;;;;;;5135347;27;20210;-49
2022/01/13 06:59:12;;;;;;;61.53;23.95;;;2.80;99.90;;;;;;5135281;27;20656;-50
2022/01/13 07:01:39;;;;;;;60.92;23.45;;;2.90;99.90;;;;;;5135209;27;20544;-49
2022/01/13 07:04:08;;;;;;;60.78;22.48;;;2.80;99.90;;;;;;5135193;27;20622;-49
2022/01/13 07:06:34;;;;;;;64.10;23.33;;;2.70;99.90;;;;;;5135461;27;20178;-49
2022/01/13 07:08:59;;;;;;;64.35;24.60;;;2.70;99.90;;;;;;5135130;27;20164;-49
2022/01/13 07:11:25;;;;;;;62.38;22.73;;;2.70;99.90;;;;;;5135391;27;20179;-49
2022/01/13 07:13:50;;;;;;;65.35;22.45;;;2.80;99.90;;;;;;5134782;27;20268;-50
2022/01/13 07:16:16;;;;;;;75.13;25.48;;;2.80;99.90;;;;;;5134896;27;20188;-48
2022/01/13 07:18:41;;;;;;;61.78;21.80;;;2.70;99.90;;;;;;5134942;27;20195;-48
2022/01/13 07:21:09;;;;;;;67.93;20.92;;;2.70;99.90;;;;;;5134951;27;20175;-49
2022/01/13 07:23:35;;;;;;;58.92;20.58;;;2.60;99.90;;;;;;5134839;27;20167;-49
2022/01/13 07:26:02;;;;;;;66.30;23.10;;;2.50;99.90;;;;;;5134852;27;20243;-47
2022/01/13 07:28:29;;;;;;;63.83;23.77;;;2.60;99.90;;;;;;5104650;27;20172;-45
2022/01/13 07:30:55;;;;;;;83.47;25.85;;;2.60;99.90;;;;;;5133782;27;20258;-49
2022/01/13 07:33:21;;;;;;;74.95;23.83;;;2.70;99.90;;;;;;5133264;27;20262;-48
2022/01/13 07:35:46;;;;;;;68.10;21.58;;;2.70;99.90;;;;;;5132986;27;20251;-49
2022/01/13 07:38:12;;;;;;;72.80;24.60;;;2.60;99.90;;;;;;5133293;27;20306;-48
2022/01/13 07:40:37;;;;;;;61.05;22.95;;;2.50;99.90;;;;;;5133313;27;20175;-47
2022/01/13 07:43:03;;;;;;;51.03;19.98;;;2.50;99.90;;;;;;5132889;27;20186;-48
2022/01/13 07:45:28;;;;;;;43.67;19.50;;;2.50;99.90;;;;;;5133332;27;20160;-45
2022/01/13 07:47:54;;;;;;;62.47;21.23;;;2.40;99.90;;;;;;5133115;27;20176;-49
2022/01/13 07:50:19;;;;;;;65.60;20.60;;;2.30;99.90;;;;;;5132822;27;20246;-51
2022/01/13 07:52:45;;;;;;;53.45;19.83;;;2.30;99.90;;;;;;5131618;27;20164;-51
2022/01/13 07:55:12;;;;;;;57.85;21.38;;;2.40;99.90;;;;;;5133021;27;20630;-53
2022/01/13 07:57:37;;;;;;;48.00;18.70;;;2.50;99.90;;;;;;5114249;27;20200;-50
2022/01/13 08:00:05;;;;;;;55.78;20.88;;;2.30;99.90;;;;;;5132608;27;20171;-54
2022/01/13 08:02:31;;;;;;;62.92;22.55;;;2.40;99.90;;;;;;5114862;27;20259;-56
2022/01/13 08:04:56;;;;;;;54.60;20.23;;;2.50;99.90;;;;;;5074745;28;20298;-49
2022/01/13 08:07:22;;;;;;;44.90;19.63;;;2.50;99.90;;;;;;5128410;27;20211;-50
2022/01/13 08:09:49;;;;;;;44.92;18.10;;;2.30;99.90;;;;;;5132475;27;20653;-47
2022/01/13 08:12:26;;;;;;;49.60;22.00;;;2.50;99.90;;;;;;5170843;27;20283;-46
2022/01/13 08:14:52;;;;;;;55.65;19.10;;;2.40;99.90;;;;;;5149481;27;20650;-49
2022/01/13 08:19:45;;;;;;;61.42;21.17;;;2.30;99.90;;;;;;5149561;27;20191;-50
2022/01/13 08:20:04;;;;;;;54.47;20.63;;;2.20;99.90;;;;;;5149305;27;20171;-49
2022/01/13 08:22:30;;;;;;;55.72;21.35;;;2.20;99.90;;;;;;5149736;27;20191;-50
2022/01/13 08:24:55;;;;;;;47.42;18.40;;;2.10;99.90;;;;;;5149941;27;20235;-51
2022/01/13 08:27:21;;;;;;;53.15;20.98;;;2.20;99.90;;;;;;5149589;27;20611;-48
2022/01/13 08:29:47;;;;;;;46.97;20.20;;;2.40;99.90;;;;;;5154880;27;20257;-50
2022/01/13 08:32:12;;;;;;;62.65;22.90;;;2.50;99.90;;;;;;5170506;27;20604;-51
2022/01/13 08:34:38;;;;;;;57.47;23.20;;;2.50;99.90;;;;;;5170293;27;20683;-51
2022/01/13 08:37:03;;;;;;;50.47;20.30;;;2.50;99.90;;;;;;5170056;27;20171;-51
2022/01/13 08:39:30;;;;;;;51.08;21.17;;;2.50;99.90;;;;;;5170106;27;20627;-48
2022/01/13 08:41:55;;;;;;;77.57;28.27;;;2.50;99.90;;;;;;5170426;27;20253;-49
2022/01/13 08:44:21;;;;;;;72.10;26.65;;;2.60;99.90;;;;;;5170073;27;20267;-49
2022/01/13 08:46:46;;;;;;;51.30;21.02;;;2.70;99.90;;;;;;5157597;27;20179;-48
2022/01/13 08:49:12;;;;;;;58.63;19.88;;;2.70;99.90;;;;;;5149267;27;20167;-48
2022/01/13 08:51:37;;;;;;;51.20;20.27;;;2.50;99.90;;;;;;5149042;27;20199;-50
2022/01/13 08:54:03;;;;;;;43.95;19.83;;;2.50;99.90;;;;;;5149514;27;20167;-50
2022/01/13 08:56:29;;;;;;;47.97;19.17;;;2.50;99.90;;;;;;5149455;27;20232;-50
2022/01/13 08:58:55;;;;;;;48.20;20.25;;;2.70;99.90;;;;;;5149282;27;20163;-50
2022/01/13 09:01:21;;;;;;;42.00;18.42;;;2.50;99.90;;;;;;5149177;27;20167;-50
2022/01/13 09:03:46;;;;;;;40.15;18.77;;;2.50;99.90;;;;;;5148911;27;20645;-50
2022/01/13 09:06:12;;;;;;;41.72;19.27;;;2.60;99.90;;;;;;5148860;27;20171;-48
2022/01/13 09:08:40;;;;;;;43.90;17.83;;;2.40;99.90;;;;;;5148840;27;20673;-50
2022/01/13 09:11:05;;;;;;;50.38;19.05;;;2.60;99.90;;;;;;5148545;27;20219;-52
2022/01/13 09:13:36;;;;;;;45.03;19.52;;;2.40;99.90;;;;;;5148777;27;20171;-50
2022/01/13 09:16:02;;;;;;;48.28;20.42;;;2.40;99.90;;;;;;5148336;27;20168;-50
2022/01/13 09:18:44;;;;;;;77.63;21.30;;;2.50;99.90;;;;;;5148813;27;20167;-47
2022/01/13 09:21:10;;;;;;;52.38;20.33;;;2.60;99.90;;;;;;5148605;27;20171;-48
2022/01/13 09:23:36;;;;;;;42.40;18.13;;;2.60;99.90;;;;;;5135401;27;20164;-48
2022/01/13 09:26:03;;;;;;;39.63;19.33;;;2.60;99.90;;;;;;5134560;27;20186;-48
2022/01/13 09:28:29;;;;;;;51.42;19.42;;;2.70;99.90;;;;;;5134948;27;20177;-49
2022/01/13 09:30:54;;;;;;;45.95;20.35;;;2.70;99.90;;;;;;5134909;27;20199;-48
2022/01/13 09:33:21;;;;;;;50.15;19.65;;;3.00;99.90;;;;;;5134507;27;20497;-48
2022/01/13 09:35:47;;;;;;;47.08;21.08;;;3.00;99.90;;;;;;5134322;27;20176;-48
2022/01/13 09:38:13;;;;;;;42.38;19.52;;;2.90;99.90;;;;;;5134435;27;20160;-49
2022/01/13 09:40:41;;;;;;;41.78;19.00;;;2.80;99.90;;;;;;5115731;27;20175;-49
2022/01/13 09:43:08;;;;;;;46.10;17.48;;;2.90;99.90;;;;;;5133905;27;20566;-48
2022/01/13 09:45:35;;;;;;;44.15;18.45;;;2.90;99.90;;;;;;5133833;27;20164;-48
2022/01/13 09:48:01;;;;;;;32.88;17.13;;;3.00;99.90;;;;;;5133900;27;20164;-48
2022/01/13 09:50:26;;;;;;;38.30;18.52;;;3.10;99.90;;;;;;5134040;27;20217;-47
2022/01/13 09:52:52;;;;;;;38.38;18.48;;;3.10;99.90;;;;;;5134093;27;20638;-48
2022/01/13 09:55:19;;;;;;;43.22;20.33;;;3.20;99.90;;;;;;5115517;27;20623;-48
2022/01/13 09:57:50;;;;;;;42.28;20.45;;;3.40;99.90;;;;;;5133760;27;20179;-47
2022/01/13 10:00:20;;;;;;;43.65;20.05;;;3.50;99.90;;;;;;5133804;27;20251;-49
2022/01/13 10:02:46;;;;;;;34.10;19.00;;;3.40;99.90;;;;;;5134172;27;20515;-48
2022/01/13 10:05:11;;;;;;;36.65;18.42;;;3.40;99.90;;;;;;5132101;27;20176;-47
2022/01/13 10:07:37;;;;;;;39.28;19.58;;;3.30;99.90;;;;;;5132385;27;20245;-47
2022/01/13 10:10:08;;;;;;;39.38;19.27;;;3.40;99.90;;;;;;5133764;27;20190;-47
2022/01/13 10:12:38;;;;;;;45.10;24.40;;;3.30;99.90;;;;;;5134073;27;20583;-49
2022/01/13 10:18:03;;;;;;;41.70;22.73;;;3.40;99.90;;;;;;5133885;27;20722;-49
2022/01/13 10:20:30;;;;;;;45.20;24.55;;;3.60;99.90;;;;;;5133983;27;20168;-47
2022/01/13 10:23:06;;;;;;;35.20;18.02;;;3.80;99.90;;;;;;5133823;27;20643;-49
2022/01/13 10:25:41;;;;;;;32.83;17.38;;;3.80;99.90;;;;;;5133507;27;20172;-48
2022/01/13 10:28:23;;;;;;;30.13;16.63;;;4.00;99.90;;;;;;5132494;27;20186;-49
2022/01/13 10:30:54;;;;;;;39.20;20.92;;;3.90;99.90;;;;;;5133482;27;20227;-49
2022/01/13 10:33:28;;;;;;;39.42;19.98;;;3.90;99.90;;;;;;5132949;27;20623;-49
2022/01/13 10:36:07;;;;;;;36.05;18.13;;;3.90;99.90;;;;;;5132860;27;20168;-49
2022/01/13 10:39:05;;;;;;;36.95;18.70;;;3.90;99.90;;;;;;5133274;27;20372;-47
2022/01/13 10:44:20;;;;;;;39.00;19.98;;;3.80;99.90;;;;;;5133474;27;20156;-48
2022/01/13 10:47:04;;;;;;;57.17;28.67;;;3.80;99.90;;;;;;5133057;27;20571;-47
2022/01/13 10:49:41;;;;;;;66.68;35.40;;;4.10;99.90;;;;;;5133054;27;20175;-48
2022/01/13 10:52:24;;;;;;;72.40;32.78;;;4.40;99.90;;;;;;5132786;27;20694;-49
2022/01/13 10:55:09;;;;;;;41.95;21.15;;;4.50;99.90;;;;;;5132914;27;20168;-48
2022/01/13 10:57:36;;;;;;;36.10;19.70;;;4.60;99.90;;;;;;5133168;27;20590;-47
2022/01/13 11:00:05;;;;;;;51.72;27.50;;;4.70;99.90;;;;;;5114495;27;20171;-49
2022/01/13 11:02:31;;;;;;;32.38;19.35;;;4.80;99.90;;;;;;5132806;27;20626;-49
2022/01/13 11:05:01;;;;;;;34.50;18.77;;;4.80;99.90;;;;;;5133084;27;20178;-49
2022/01/13 11:07:27;;;;;;;30.10;17.27;;;4.90;99.90;;;;;;5132821;27;20523;-48
2022/01/13 11:10:01;;;;;;;36.00;15.30;;;4.90;99.90;;;;;;5132627;27;20164;-49
2022/01/13 11:12:38;;;;;;;33.17;17.58;;;4.70;99.90;;;;;;5132647;27;20184;-48
2022/01/13 11:15:07;;;;;;;32.72;18.85;;;4.50;99.90;;;;;;5132620;27;20164;-47
2022/01/13 11:17:36;;;;;;;34.05;18.60;;;4.70;99.90;;;;;;5132556;27;20224;-48
2022/01/13 11:20:03;;;;;;;31.85;18.00;;;5.00;99.90;;;;;;5132474;27;20183;-47
2022/01/13 11:22:34;;;;;;;30.40;16.60;;;5.10;99.90;;;;;;5132195;27;20576;-47
2022/01/13 11:25:00;;;;;;;30.00;16.48;;;4.90;99.90;;;;;;5132113;27;20243;-47
2022/01/13 11:27:25;;;;;;;36.65;17.30;;;4.70;99.90;;;;;;5132322;27;20255;-49
2022/01/13 11:29:51;;;;;;;32.25;16.95;;;4.70;99.90;;;;;;5132413;27;20629;-49
2022/01/13 11:32:17;;;;;;;30.75;17.48;;;4.80;99.90;;;;;;5131976;27;20211;-49
2022/01/13 11:34:45;;;;;;;35.78;18.48;;;4.90;99.90;;;;;;5132509;27;20164;-50
2022/01/13 11:37:11;;;;;;;44.38;21.50;;;4.60;99.90;;;;;;5132068;27;20168;-48
2022/01/13 11:39:40;;;;;;;51.25;28.55;;;4.70;99.90;;;;;;5132290;27;20167;-48
2022/01/13 11:42:08;;;;;;;40.38;20.35;;;4.80;99.90;;;;;;5132145;27;20172;-49
2022/01/13 11:44:34;;;;;;;34.97;18.15;;;4.80;99.90;;;;;;5132306;27;20172;-50
2022/01/13 11:47:01;;;;;;;34.90;18.95;;;4.90;99.90;;;;;;5131369;27;20612;-49
2022/01/13 11:49:43;;;;;;;34.65;19.52;;;4.80;99.90;;;;;;5132464;27;20207;-50
2022/01/13 11:52:15;;;;;;;37.80;17.58;;;4.80;99.90;;;;;;5131656;27;20566;-49
2022/01/13 11:54:42;;;;;;;39.38;20.23;;;4.80;99.90;;;;;;5131930;27;20168;-48
2022/01/13 11:57:17;;;;;;;43.45;19.80;;;4.90;99.90;;;;;;5131938;27;20163;-50
2022/01/13 12:00:04;;;;;;;36.67;18.17;;;4.90;99.90;;;;;;5131906;27;20183;-48
2022/01/13 12:02:30;;;;;;;33.45;18.17;;;4.80;99.90;;;;;;5114799;27;20187;-48
2022/01/13 12:05:00;;;;;;;44.67;20.17;;;4.80;99.90;;;;;;5130116;27;20175;-49
2022/01/13 12:07:42;;;;;;;36.80;19.80;;;4.90;99.90;;;;;;5132295;27;20172;-47
2022/01/13 12:10:09;;;;;;;53.10;28.80;;;4.90;99.90;;;;;;5131709;27;20174;-49
2022/01/13 12:12:37;;;;;;;49.17;27.02;;;5.00;99.90;;;;;;5131470;27;20194;-47
2022/01/13 12:15:18;;;;;;;40.03;22.92;;;5.00;99.90;;;;;;5131875;27;20164;-47
2022/01/13 12:17:48;;;;;;;37.90;20.10;;;5.10;99.90;;;;;;5131642;27;20178;-49
2022/01/13 12:20:37;;;;;;;33.20;20.08;;;5.10;99.90;;;;;;5131486;27;20164;-48
2022/01/13 12:23:15;;;;;;;29.55;16.48;;;5.10;99.90;;;;;;5131800;27;20256;-53
2022/01/13 12:25:41;;;;;;;34.90;16.33;;;5.20;99.90;;;;;;5131641;28;20164;-53
2022/01/13 12:28:20;;;;;;;33.78;15.73;;;5.30;99.90;;;;;;5131532;27;20175;-51
2022/01/13 12:30:46;;;;;;;30.80;15.52;;;5.40;99.90;;;;;;5113119;28;20639;-52
2022/01/13 12:33:28;;;;;;;27.48;15.82;;;5.40;99.90;;;;;;5131570;27;20165;-50
2022/01/13 12:35:53;;;;;;;29.17;15.68;;;5.50;99.90;;;;;;5131444;27;20293;-48
2022/01/13 12:38:21;;;;;;;33.53;15.63;;;5.70;99.90;;;;;;5131158;28;20250;-48
2022/01/13 12:41:00;;;;;;;26.67;14.52;;;5.70;99.90;;;;;;5131470;27;20170;-48
2022/01/13 12:43:37;;;;;;;29.45;14.65;;;5.80;99.90;;;;;;5131938;27;20172;-48
2022/01/13 12:46:21;;;;;;;30.52;15.00;;;5.80;99.90;;;;;;5113017;28;20582;-48
2022/01/13 12:48:50;;;;;;;31.33;15.02;;;6.00;99.90;;;;;;5131454;27;20164;-47
2022/01/13 12:51:18;;;;;;;27.38;12.68;;;6.10;99.90;;;;;;5131501;27;20207;-48
2022/01/13 12:53:45;;;;;;;53.80;22.02;;;6.00;99.90;;;;;;5131515;27;20219;-48
2022/01/13 12:56:13;;;;;;;60.28;26.33;;;6.10;99.90;;;;;;5131109;27;20635;-47
2022/01/13 12:58:44;;;;;;;72.38;30.55;;;6.10;99.90;;;;;;5133177;27;20631;-48
2022/01/13 13:01:16;;;;;;;24.67;12.80;;;6.10;99.90;;;;;;5135215;27;20187;-47
2022/01/13 13:03:42;;;;;;;17.60;10.32;;;6.10;99.90;;;;;;5135102;27;20258;-49
2022/01/13 13:06:13;;;;;;;20.50;11.45;;;6.10;99.90;;;;;;5135091;27;20244;-47
2022/01/13 13:08:46;;;;;;;23.90;13.75;;;6.10;99.90;;;;;;5135176;27;20171;-49
2022/01/13 13:11:12;;;;;;;20.08;11.82;;;6.10;99.90;;;;;;5134718;27;20702;-47
2022/01/13 13:13:49;;;;;;;27.98;13.32;;;6.20;99.90;;;;;;5134858;27;20164;-48
2022/01/13 13:16:15;;;;;;;18.92;11.15;;;6.20;99.90;;;;;;5134794;27;20666;-48